• Join FlightAware (Why Join?)
  • Login
  • US Flag 
12:44AM EST


 

Airport Tracker/Info


-or-


 

Live Flight TrackerFlight Track Log ✈ LIA553 ✈ 10-May-2013 ✈ TIST / STT - TQPF / AXA

Flight Track Log - Related Links

Times and Time Zones

All times are in EDT time to prevent confusion due to time zone crossing. See the LIA553 flight status page for this flight to view local times or setup timezone preferences in your user account.

Time Position Orientation Groundspeed Altitude Reporting Facility
EDT Latitude Longitude Course Direction KTS MPH feet Rate Location/Type
04:56PM 18.3000 -64.9333 90° East 160 184 4,200  Level San Juan Center
04:57PM 18.3000 -64.8833 90° East 160 184 5,400 1,200 Climbing San Juan Center
04:58PM 18.3167 -64.8333 71° East 170 196 6,700 1,200 Climbing San Juan Center
04:59PM 18.3167 -64.7833 90° East 170 196 7,900 1,140 Climbing San Juan Center
05:00PM 18.3333 -64.7333 71° East 180 207 9,000 540 Climbing San Juan Center
05:01PM 18.3500 -64.6667 75° East 230 265 9,000  Level San Juan Center
05:02PM 18.3667 -64.6000 75° East 260 299 9,000  Level San Juan Center
05:03PM 18.3667 -64.5167 90° East 270 311 9,000  Level San Juan Center
05:04PM 18.3833 -64.4333 78° East 270 311 9,000  Level San Juan Center
05:05PM 18.3833 -64.3667 90° East 280 322 9,000  Level San Juan Center
05:06PM 18.3833 -64.2833 90° East 280 322 9,000  Level San Juan Center
05:07PM 18.3833 -64.2000 90° East 270 311 9,000  Level San Juan Center
05:08PM 18.3833 -64.1167 90° East 270 311 9,000  Level San Juan Center
05:09PM 18.3833 -64.0333 90° East 270 311 9,100  Climbing San Juan Center
05:10PM 18.3833 -63.9500 90° East 270 311 9,100  Level San Juan Center
05:11PM 18.3667 -63.8833 105° East 270 311 9,100  Level San Juan Center
05:12PM 18.3500 -63.8000 89° East 270 311 9,100  Level San Juan Center
05:13PM 18.3333 -63.7333 105° East 260 299 9,100  Level San Juan Center
05:14PM 18.3167 -63.6500 102° East 260 299 9,100  Level San Juan Center
05:15PM 18.3000 -63.5833 105° East 270 311 9,100 -420 Level San Juan Center
05:16PM 18.2833 -63.5000 102° East 280 322 8,300 -1,140 Descending San Juan Center
05:17PM 18.2667 -63.4333 105° East 240 276 6,900 -1,440 Descending San Juan Center
05:18PM 18.2500 -63.3667 105° East 260 299 5,400 -1,500 Descending San Juan Center
05:20PM 18.2333 -63.2511 125° Southeast  Level Estimated
05:27PM 18.2000 -63.0500 North  Level FlightAware Approximate
05:28PM 18.2048 -63.0551 North  Level Estimated
05:29PM 18.2000 -63.0500 North  Level FlightAware Approximate
05:30PM 18.2048 -63.0551 North  Level Estimated
05:31PM 18.2000 -63.0500 North  Level FlightAware Approximate
05:32PM 18.2048 -63.0551 North  Level Estimated